Weather at Burlington International Airport

Public forecast

Using degrees Fahrenheit for public forecast. Weather courtesy of forecast.io.

Current aviation weather report (METAR) for Burlington International Airport

Retrieved 2020/09/21 15:54 UTC (34 minutes ago):

KBTV 211554Z 32003KT 10SM CLR 14/01 A3062 RMK AO2 SLP370 T01440006

Aviation forecast (TAF) for Burlington International Airport

Retrieved 2020/09/21 12:42 UTC (4 hours ago):

TAF KBTV 211140Z 2112/2212 VRB05KT P6SM SCT200